Time;durP1;ratioP1;P1;durP2;ratioP2;P2;SDS_P1;SDS_P2;PMS_P1;PMS_P2;Temp;Humidity;BMP_temperature;BMP_pressure;BME280_temperature;BME280_humidity;BME280_pressure;Samples;Min_cycle;Max_cycle;Signal;HPM_P1;HPM_P2
2022/03/12 00:00:12;;;;;;;9.95;4.68;;;8.10;53.00;;;;;;5054178;28;20052;-68
2022/03/12 00:03:21;;;;;;;6.43;4.38;;;8.20;52.70;;;;;;5054045;28;20033;-68
2022/03/12 00:06:25;;;;;;;7.53;4.78;;;8.10;52.90;;;;;;5053776;28;20036;-68
2022/03/12 00:09:29;;;;;;;13.52;5.65;;;8.10;53.10;;;;;;5054005;28;20060;-68
2022/03/12 00:12:34;;;;;;;12.38;5.10;;;8.00;53.60;;;;;;5053552;28;20523;-68
2022/03/12 00:15:38;;;;;;;7.93;4.90;;;8.10;53.70;;;;;;5052810;28;20052;-68
2022/03/12 00:18:46;;;;;;;9.95;4.80;;;8.10;53.70;;;;;;5052756;28;20037;-67
2022/03/12 00:21:51;;;;;;;10.73;5.55;;;8.20;53.30;;;;;;5053266;28;20044;-67
2022/03/12 00:24:55;;;;;;;10.02;6.15;;;8.10;53.60;;;;;;5053671;28;20104;-68
2022/03/12 00:28:02;;;;;;;11.32;5.95;;;8.00;53.90;;;;;;5053683;28;20397;-68
2022/03/12 00:31:05;;;;;;;12.63;6.03;;;7.90;54.70;;;;;;5053557;28;20040;-68
2022/03/12 00:34:09;;;;;;;11.70;5.72;;;7.80;54.90;;;;;;5052420;28;20132;-68
2022/03/12 00:37:13;;;;;;;10.52;6.00;;;7.80;55.00;;;;;;5053155;28;20044;-68
2022/03/12 00:40:20;;;;;;;8.70;5.10;;;7.70;55.10;;;;;;5053546;28;20404;-68
2022/03/12 00:43:24;;;;;;;8.77;5.53;;;7.60;54.10;;;;;;5052945;28;20037;-68
2022/03/12 00:46:29;;;;;;;8.98;5.40;;;7.60;54.10;;;;;;5053215;28;20041;-68
2022/03/12 00:49:33;;;;;;;9.50;4.95;;;7.50;54.10;;;;;;5052951;28;20037;-68
2022/03/12 00:52:37;;;;;;;7.18;3.90;;;7.50;54.60;;;;;;5053018;28;20041;-68
2022/03/12 00:55:41;;;;;;;5.82;3.42;;;7.50;54.00;;;;;;5053165;28;20139;-68
2022/03/12 00:58:47;;;;;;;4.50;3.35;;;7.50;53.30;;;;;;5052824;28;20037;-68
2022/03/12 01:01:50;;;;;;;6.45;3.60;;;7.60;53.50;;;;;;5052503;28;20374;-67
2022/03/12 01:04:54;;;;;;;4.93;2.97;;;7.60;53.80;;;;;;5052720;28;20045;-66
2022/03/12 01:07:58;;;;;;;6.65;3.10;;;7.60;54.40;;;;;;5052552;28;20033;-67
2022/03/12 01:11:06;;;;;;;4.65;2.92;;;7.60;54.80;;;;;;5052403;28;20037;-67
2022/03/12 01:14:10;;;;;;;6.50;2.83;;;7.60;54.70;;;;;;5052583;28;20068;-68
2022/03/12 01:17:15;;;;;;;5.55;3.17;;;7.60;54.90;;;;;;5052707;28;20041;-68
2022/03/12 01:20:24;;;;;;;5.75;3.40;;;7.50;54.50;;;;;;5052292;28;20040;-67
2022/03/12 01:23:28;;;;;;;8.80;2.92;;;7.60;53.30;;;;;;5052289;28;20033;-68
2022/03/12 01:26:34;;;;;;;5.40;2.80;;;7.50;53.50;;;;;;5052310;28;20041;-67
2022/03/12 01:29:38;;;;;;;6.10;3.00;;;7.40;53.10;;;;;;5052517;28;20037;-68
2022/03/12 01:32:42;;;;;;;6.68;3.22;;;7.40;53.50;;;;;;5052392;28;20040;-68
2022/03/12 01:35:46;;;;;;;6.40;2.80;;;7.50;53.00;;;;;;5051954;28;20044;-68
2022/03/12 01:38:54;;;;;;;9.80;3.10;;;7.40;53.30;;;;;;5052215;28;20483;-68
2022/03/12 01:41:58;;;;;;;5.10;3.33;;;7.30;53.90;;;;;;5051872;28;20140;-68
2022/03/12 01:45:02;;;;;;;8.32;3.00;;;7.20;54.70;;;;;;5052034;28;20044;-68
2022/03/12 01:48:08;;;;;;;4.25;2.95;;;7.10;55.30;;;;;;5051774;28;20045;-68
2022/03/12 01:51:13;;;;;;;7.03;3.05;;;7.10;55.90;;;;;;5051835;28;20045;-68
2022/03/12 01:54:20;;;;;;;6.72;3.60;;;7.10;55.70;;;;;;5051688;28;20048;-67
2022/03/12 01:57:24;;;;;;;6.95;3.40;;;7.00;56.10;;;;;;5051084;28;20188;-67
2022/03/12 02:00:41;;;;;;;9.40;3.88;;;7.00;56.50;;;;;;5050878;28;20045;-68
2022/03/12 02:03:46;;;;;;;6.10;3.10;;;7.00;56.40;;;;;;5051575;28;20029;-68
2022/03/12 02:06:51;;;;;;;7.45;3.45;;;6.80;56.80;;;;;;5051093;28;20508;-68
2022/03/12 02:09:55;;;;;;;6.07;3.47;;;6.70;57.30;;;;;;5050885;28;20037;-68
2022/03/12 02:12:59;;;;;;;5.55;3.70;;;6.60;57.80;;;;;;5051602;28;20049;-68
2022/03/12 02:16:07;;;;;;;6.10;3.60;;;6.70;58.10;;;;;;5050341;28;20053;-68
2022/03/12 02:19:11;;;;;;;6.40;3.65;;;6.70;57.60;;;;;;5051322;28;20045;-68
2022/03/12 02:22:15;;;;;;;6.35;3.83;;;6.70;57.70;;;;;;5051333;28;20381;-68
2022/03/12 02:25:29;;;;;;;8.32;3.78;;;6.50;57.80;;;;;;5051429;28;20060;-68
2022/03/12 02:28:33;;;;;;;;;;;6.40;57.40;;;;;;5051934;28;20040;-68
2022/03/12 02:31:37;;;;;;;8.20;4.03;;;6.60;57.30;;;;;;5051364;28;19920;-68
2022/03/12 02:34:46;;;;;;;6.85;3.53;;;6.60;57.10;;;;;;5051106;28;20402;-68
2022/03/12 02:37:52;;;;;;;7.82;3.67;;;6.60;57.10;;;;;;5051237;28;20029;-68
2022/03/12 02:41:10;;;;;;;6.57;3.88;;;6.60;57.80;;;;;;5050888;28;20045;-68
2022/03/12 02:44:22;;;;;;;8.05;3.72;;;6.50;57.10;;;;;;5051095;28;20048;-68
2022/03/12 02:47:30;;;;;;;7.05;4.25;;;6.50;57.50;;;;;;5050254;28;20040;-68
2022/03/12 02:50:34;;;;;;;5.75;3.58;;;6.50;57.10;;;;;;5050913;28;20033;-68
2022/03/12 02:53:38;;;;;;;7.45;3.20;;;6.60;56.80;;;;;;5049951;28;20385;-68
2022/03/12 02:56:42;;;;;;;7.00;3.45;;;6.70;56.70;;;;;;5050762;28;20048;-68
2022/03/12 02:59:48;;;;;;;5.90;3.55;;;6.60;56.70;;;;;;5050709;28;20032;-68
2022/03/12 03:02:55;;;;;;;7.45;3.70;;;6.40;57.00;;;;;;5050934;28;20385;-68
2022/03/12 03:05:59;;;;;;;7.50;3.75;;;6.50;57.40;;;;;;5049725;28;20033;-68
2022/03/12 03:09:04;;;;;;;8.73;3.63;;;6.50;57.20;;;;;;5050912;28;20040;-68
2022/03/12 03:12:10;;;;;;;9.38;3.17;;;6.50;57.10;;;;;;5050311;28;20037;-68
2022/03/12 03:15:15;;;;;;;5.97;3.50;;;6.50;57.40;;;;;;5050324;28;20044;-68
2022/03/12 03:18:22;;;;;;;5.13;3.45;;;6.40;57.30;;;;;;5050352;28;20449;-68
2022/03/12 03:21:27;;;;;;;7.57;3.40;;;6.50;57.40;;;;;;5050432;28;20041;-68
2022/03/12 03:24:31;;;;;;;7.47;3.47;;;6.50;57.50;;;;;;5050751;28;20041;-68
2022/03/12 03:27:35;;;;;;;7.65;3.20;;;6.50;57.30;;;;;;5050430;28;20041;-68
2022/03/12 03:30:41;;;;;;;6.78;3.50;;;6.50;57.00;;;;;;5050586;28;20041;-68
2022/03/12 03:33:45;;;;;;;8.85;3.75;;;6.40;57.30;;;;;;5050340;28;20456;-68
2022/03/12 03:36:50;;;;;;;8.35;3.50;;;6.50;57.50;;;;;;5050671;28;20045;-68
2022/03/12 03:39:54;;;;;;;9.35;3.42;;;6.60;57.40;;;;;;5050630;28;20041;-68
2022/03/12 03:42:58;;;;;;;8.07;3.63;;;6.60;57.20;;;;;;5050458;28;20045;-68
2022/03/12 03:46:03;;;;;;;6.60;3.85;;;6.50;57.60;;;;;;5050935;28;20370;-68
2022/03/12 03:49:07;;;;;;;9.95;3.92;;;6.30;57.90;;;;;;5050235;28;20496;-68
2022/03/12 03:52:12;;;;;;;7.55;4.00;;;6.30;57.80;;;;;;5050361;28;20362;-68
2022/03/12 03:55:16;;;;;;;5.95;3.75;;;6.30;58.30;;;;;;5050282;28;20045;-68
2022/03/12 03:58:20;;;;;;;5.32;3.03;;;6.20;58.40;;;;;;5054082;28;20040;-68
2022/03/12 04:01:25;;;;;;;6.07;3.60;;;6.10;57.80;;;;;;5053833;28;20189;-68
2022/03/12 04:04:35;;;;;;;6.07;3.30;;;6.20;57.90;;;;;;5054100;28;20036;-68
2022/03/12 04:07:41;;;;;;;6.95;3.58;;;6.40;57.20;;;;;;5053912;28;20045;-68
2022/03/12 04:10:45;;;;;;;6.38;3.30;;;6.40;57.30;;;;;;5054041;28;20041;-68
2022/03/12 04:13:52;;;;;;;5.05;2.90;;;6.40;56.50;;;;;;5053883;28;20037;-68
2022/03/12 04:16:58;;;;;;;7.25;3.40;;;6.30;56.50;;;;;;5053509;28;20049;-68
2022/03/12 04:20:03;;;;;;;5.30;2.83;;;6.20;56.60;;;;;;5053730;28;20037;-68
2022/03/12 04:23:07;;;;;;;3.85;2.63;;;6.30;56.10;;;;;;5053407;28;20037;-68
2022/03/12 04:26:11;;;;;;;5.22;2.70;;;6.40;55.50;;;;;;5053742;28;20041;-68
2022/03/12 04:29:15;;;;;;;7.70;3.08;;;6.50;55.80;;;;;;5053399;28;20037;-68
2022/03/12 04:32:20;;;;;;;4.95;3.10;;;6.50;55.60;;;;;;5053538;28;20037;-68
2022/03/12 04:35:25;;;;;;;9.60;3.33;;;6.30;56.10;;;;;;5053281;28;20057;-68
2022/03/12 04:38:28;;;;;;;6.13;3.00;;;6.20;56.40;;;;;;5041218;28;20045;-68
2022/03/12 04:41:34;;;;;;;5.90;3.28;;;6.20;56.50;;;;;;5053343;28;20488;-68
2022/03/12 04:44:39;;;;;;;5.90;3.10;;;6.20;56.40;;;;;;5053540;28;20037;-68
2022/03/12 04:47:45;;;;;;;7.80;3.30;;;6.10;56.40;;;;;;5053352;28;20053;-68
2022/03/12 04:50:51;;;;;;;5.75;2.92;;;6.10;56.50;;;;;;5053307;28;20032;-68
2022/03/12 04:53:59;;;;;;;5.80;3.38;;;6.30;56.30;;;;;;5053147;28;20029;-68
2022/03/12 04:57:05;;;;;;;8.18;3.35;;;6.50;56.40;;;;;;5052730;28;20489;-68
2022/03/12 05:00:30;;;;;;;9.98;4.97;;;6.50;56.80;;;;;;5053195;28;20029;-69
2022/03/12 05:03:36;;;;;;;9.50;4.38;;;6.60;56.70;;;;;;5051867;28;20029;-67
2022/03/12 05:06:40;;;;;;;10.40;4.03;;;6.60;56.80;;;;;;5052983;28;20034;-68
2022/03/12 05:09:44;;;;;;;8.73;4.05;;;6.60;57.30;;;;;;5050992;28;20057;-68
2022/03/12 05:12:48;;;;;;;12.45;5.10;;;6.60;57.30;;;;;;5052708;28;20362;-68
2022/03/12 05:15:55;;;;;;;14.95;5.78;;;6.60;57.70;;;;;;5052292;28;20068;-68
2022/03/12 05:18:59;;;;;;;13.45;5.40;;;6.40;58.20;;;;;;5052690;28;20044;-68
2022/03/12 05:22:07;;;;;;;9.77;4.90;;;6.20;58.10;;;;;;5052080;28;20040;-68
2022/03/12 05:25:12;;;;;;;11.05;4.28;;;6.20;57.70;;;;;;5052682;28;20405;-68
2022/03/12 05:28:21;;;;;;;8.32;4.25;;;6.30;57.40;;;;;;5052108;28;20043;-69
2022/03/12 05:31:24;;;;;;;10.27;5.45;;;6.20;57.60;;;;;;5052232;28;20036;-68
2022/03/12 05:34:28;;;;;;;14.85;5.32;;;6.10;59.00;;;;;;5052039;28;20527;-69
2022/03/12 05:37:36;;;;;;;9.30;4.72;;;6.00;58.90;;;;;;5051994;28;20063;-68
2022/03/12 05:40:41;;;;;;;11.38;4.15;;;5.90;59.40;;;;;;5051644;28;20028;-69
2022/03/12 05:43:46;;;;;;;19.75;5.88;;;5.90;59.20;;;;;;5051860;28;20060;-68
2022/03/12 05:46:50;;;;;;;6.55;3.70;;;6.00;59.30;;;;;;5052029;28;20055;-69
2022/03/12 05:49:54;;;;;;;9.43;3.50;;;6.20;58.90;;;;;;5051871;28;20037;-69
2022/03/12 05:52:58;;;;;;;7.90;3.80;;;6.80;56.10;;;;;;5051763;28;20041;-68
2022/03/12 05:56:02;;;;;;;11.00;4.00;;;7.30;55.80;;;;;;5050969;28;20053;-68
2022/03/12 05:59:10;;;;;;;9.20;4.30;;;8.20;53.10;;;;;;5051746;28;20040;-67
2022/03/12 06:02:14;;;;;;;11.75;4.00;;;9.50;50.60;;;;;;5051468;28;20041;-68
2022/03/12 06:05:20;;;;;;;13.88;7.65;;;10.70;48.10;;;;;;5051609;28;20044;-69
2022/03/12 06:08:28;;;;;;;18.83;6.85;;;11.70;46.10;;;;;;5051313;28;20040;-68
2022/03/12 06:11:32;;;;;;;11.15;4.70;;;12.80;45.10;;;;;;5051652;28;20055;-68
2022/03/12 06:14:38;;;;;;;10.88;4.43;;;13.80;43.40;;;;;;5051400;28;20345;-68
2022/03/12 06:17:47;;;;;;;20.45;12.10;;;14.40;42.10;;;;;;5051791;28;20056;-68
2022/03/12 06:20:51;;;;;;;28.00;11.90;;;15.00;41.00;;;;;;5050755;28;20056;-69
2022/03/12 06:23:56;;;;;;;15.75;8.60;;;15.40;40.50;;;;;;5051386;28;20048;-69
2022/03/12 06:27:00;;;;;;;17.20;8.48;;;15.70;40.20;;;;;;5051667;28;20048;-67
2022/03/12 06:30:10;;;;;;;14.10;6.53;;;15.90;40.90;;;;;;5051429;28;20059;-66
2022/03/12 06:33:18;;;;;;;11.43;5.03;;;16.30;40.00;;;;;;5051517;28;20047;-67
2022/03/12 06:36:22;;;;;;;16.83;6.00;;;16.90;39.30;;;;;;5051240;28;20306;-67
2022/03/12 06:39:26;;;;;;;18.50;6.68;;;16.80;39.30;;;;;;5051440;28;20069;-66
2022/03/12 06:42:32;;;;;;;12.93;5.55;;;16.60;39.20;;;;;;5051240;28;20048;-66
2022/03/12 06:45:37;;;;;;;10.68;6.15;;;16.00;39.70;;;;;;5051344;28;20055;-65
2022/03/12 06:48:42;;;;;;;11.88;5.43;;;15.40;40.30;;;;;;5051267;28;20400;-65
2022/03/12 06:51:45;;;;;;;11.32;5.15;;;15.00;40.50;;;;;;5050140;28;20126;-66
2022/03/12 06:54:51;;;;;;;19.27;5.97;;;14.80;41.20;;;;;;5050858;28;20060;-66
2022/03/12 06:57:57;;;;;;;14.15;5.32;;;14.50;41.60;;;;;;5050722;28;20059;-65
2022/03/12 07:01:02;;;;;;;11.52;5.20;;;14.30;41.80;;;;;;5050804;28;20043;-66
2022/03/12 07:04:06;;;;;;;8.52;4.97;;;14.10;41.60;;;;;;5050534;28;20053;-66
2022/03/12 07:07:10;;;;;;;15.70;4.80;;;13.90;42.50;;;;;;5050873;28;20048;-66
2022/03/12 07:10:15;;;;;;;10.98;4.57;;;13.90;43.00;;;;;;5050930;28;20048;-66
2022/03/12 07:13:22;;;;;;;7.35;3.63;;;13.80;43.20;;;;;;5050688;28;20048;-67
2022/03/12 07:16:26;;;;;;;5.05;2.97;;;14.00;42.40;;;;;;5050283;28;20056;-69
2022/03/12 07:19:30;;;;;;;9.65;3.70;;;14.10;41.50;;;;;;5050648;28;20048;-68
2022/03/12 07:22:35;;;;;;;5.22;3.38;;;13.90;42.90;;;;;;5050582;28;20044;-67
2022/03/12 07:25:39;;;;;;;4.60;3.30;;;14.00;42.50;;;;;;5050904;28;20040;-66
2022/03/12 07:28:43;;;;;;;3.97;2.88;;;13.90;42.70;;;;;;5050816;28;20052;-66
2022/03/12 07:31:47;;;;;;;14.25;4.75;;;13.70;42.10;;;;;;5051819;28;20491;-65
2022/03/12 07:34:51;;;;;;;6.40;3.05;;;13.50;42.80;;;;;;5054521;28;20418;-68
2022/03/12 07:37:56;;;;;;;18.58;6.03;;;13.70;42.30;;;;;;5041836;28;20040;-72
2022/03/12 07:41:00;;;;;;;9.52;3.67;;;13.60;42.20;;;;;;5053989;28;20044;-67
2022/03/12 07:44:05;;;;;;;6.18;4.10;;;13.80;42.20;;;;;;5053672;28;20044;-68
2022/03/12 07:47:09;;;;;;;12.73;4.72;;;14.10;42.30;;;;;;5054241;28;20048;-69
2022/03/12 07:50:14;;;;;;;5.40;3.25;;;14.30;41.20;;;;;;5053995;28;20048;-67
2022/03/12 07:53:18;;;;;;;6.30;3.53;;;14.40;41.00;;;;;;5053732;28;20044;-68
2022/03/12 07:56:22;;;;;;;7.15;3.72;;;14.20;40.90;;;;;;5051324;28;20404;-67
2022/03/12 07:59:27;;;;;;;5.53;3.20;;;14.40;40.60;;;;;;5052316;28;20275;-67
2022/03/12 08:02:31;;;;;;;5.75;3.72;;;14.60;40.00;;;;;;5051828;28;20400;-68
2022/03/12 08:05:36;;;;;;;14.95;4.15;;;14.50;40.50;;;;;;5051356;28;20048;-67
2022/03/12 08:08:40;;;;;;;6.40;3.90;;;14.50;40.80;;;;;;5052478;28;20479;-67
2022/03/12 08:11:44;;;;;;;6.90;3.97;;;14.90;40.50;;;;;;5053791;28;20051;-67
2022/03/12 08:14:48;;;;;;;5.53;3.67;;;14.60;41.90;;;;;;5053597;28;20055;-66
2022/03/12 08:17:52;;;;;;;7.85;3.42;;;14.40;41.50;;;;;;5051779;28;20052;-68
2022/03/12 08:20:57;;;;;;;13.65;3.40;;;14.50;41.10;;;;;;5051423;28;20048;-68
2022/03/12 08:24:04;;;;;;;8.70;3.40;;;14.50;40.70;;;;;;5050840;28;20361;-66
2022/03/12 08:27:09;;;;;;;8.15;3.50;;;14.60;40.40;;;;;;5051596;28;20044;-67
2022/03/12 08:30:14;;;;;;;4.90;3.25;;;14.80;42.40;;;;;;5051421;28;20068;-67
2022/03/12 08:33:19;;;;;;;5.32;3.83;;;15.00;40.40;;;;;;5053414;28;20424;-67
2022/03/12 08:36:23;;;;;;;12.43;3.72;;;15.10;40.60;;;;;;5053214;28;20056;-68
2022/03/12 08:39:28;;;;;;;6.47;4.10;;;15.20;40.70;;;;;;5053611;28;20048;-66
2022/03/12 08:42:33;;;;;;;7.68;4.25;;;15.10;41.10;;;;;;5052760;28;20052;-67
2022/03/12 08:45:37;;;;;;;13.23;3.97;;;15.20;41.50;;;;;;5053186;28;20047;-68
2022/03/12 08:48:41;;;;;;;10.40;3.78;;;15.40;41.40;;;;;;5052983;28;20396;-67
2022/03/12 08:51:46;;;;;;;9.32;3.88;;;15.10;40.60;;;;;;5052869;28;20048;-67
2022/03/12 08:54:50;;;;;;;6.22;3.60;;;15.10;42.10;;;;;;5052885;28;20047;-68
2022/03/12 08:57:55;;;;;;;9.88;4.07;;;15.20;41.80;;;;;;5052936;28;20056;-68
2022/03/12 09:01:02;;;;;;;6.78;4.68;;;15.20;41.40;;;;;;5052956;28;20400;-66
2022/03/12 09:04:06;;;;;;;8.35;4.88;;;14.70;41.40;;;;;;5052701;28;20484;-66
2022/03/12 09:07:13;;;;;;;7.53;3.90;;;14.70;43.10;;;;;;5052720;28;20044;-67
2022/03/12 09:10:18;;;;;;;5.45;3.72;;;14.50;42.50;;;;;;5052891;28;20048;-65
2022/03/12 09:13:23;;;;;;;7.15;4.05;;;14.00;42.90;;;;;;5052602;28;20048;-67
2022/03/12 09:16:27;;;;;;;7.22;3.92;;;13.60;43.90;;;;;;5052400;28;20064;-67
2022/03/12 09:19:34;;;;;;;8.35;3.92;;;13.70;43.60;;;;;;5052777;28;20040;-68
2022/03/12 09:22:38;;;;;;;10.57;5.10;;;13.60;43.40;;;;;;5052541;28;20068;-69
2022/03/12 09:25:42;;;;;;;9.27;4.38;;;13.50;43.80;;;;;;5052586;28;20060;-67
2022/03/12 09:28:47;;;;;;;8.10;3.83;;;13.90;45.50;;;;;;5052551;28;20235;-67
2022/03/12 09:31:51;;;;;;;10.65;4.30;;;14.30;43.40;;;;;;5051500;28;20047;-68
2022/03/12 09:34:55;;;;;;;6.85;4.50;;;14.60;42.40;;;;;;5052201;28;20123;-66
2022/03/12 09:38:01;;;;;;;12.93;4.03;;;14.80;41.70;;;;;;5052317;28;20060;-65
2022/03/12 09:41:05;;;;;;;15.38;4.57;;;15.00;41.90;;;;;;5052189;28;20424;-66
2022/03/12 09:44:10;;;;;;;7.15;3.85;;;15.20;42.30;;;;;;5051378;28;20051;-67
2022/03/12 09:47:14;;;;;;;12.18;5.00;;;15.40;41.40;;;;;;5052395;28;20393;-68
2022/03/12 09:50:19;;;;;;;9.05;4.60;;;15.40;41.60;;;;;;5051782;28;20044;-66
2022/03/12 09:53:23;;;;;;;6.18;4.13;;;15.10;41.60;;;;;;5051577;28;20063;-67
2022/03/12 09:56:28;;;;;;;10.50;3.80;;;14.70;41.90;;;;;;5050523;28;20064;-66
2022/03/12 09:59:32;;;;;;;9.23;4.00;;;14.40;42.60;;;;;;5051788;28;20044;-69
2022/03/12 10:02:35;;;;;;;7.53;3.88;;;14.00;43.60;;;;;;5050151;28;20059;-68
2022/03/12 10:05:40;;;;;;;7.53;4.25;;;14.00;43.70;;;;;;5051955;28;20044;-68
2022/03/12 10:08:45;;;;;;;9.48;4.63;;;13.40;43.80;;;;;;5051523;28;20051;-66
2022/03/12 10:11:52;;;;;;;8.93;4.00;;;13.20;45.20;;;;;;5051738;28;20064;-67
2022/03/12 10:14:55;;;;;;;8.73;5.07;;;13.40;43.60;;;;;;5051544;28;20052;-67
2022/03/12 10:18:00;;;;;;;9.15;4.53;;;13.40;43.40;;;;;;5050548;28;20507;-68
2022/03/12 10:21:04;;;;;;;6.63;4.43;;;13.40;43.70;;;;;;5051041;28;20052;-68
2022/03/12 10:24:10;;;;;;;6.90;4.00;;;13.60;44.30;;;;;;5049843;28;20059;-69
2022/03/12 10:27:14;;;;;;;8.68;4.13;;;13.90;44.50;;;;;;5051335;28;20048;-67
2022/03/12 10:30:19;;;;;;;9.23;4.55;;;13.70;43.20;;;;;;5050647;28;20060;-68
2022/03/12 10:33:25;;;;;;;7.70;4.70;;;13.60;43.30;;;;;;5050884;28;20052;-67
2022/03/12 10:36:39;;;;;;;13.45;4.78;;;13.60;44.40;;;;;;5050762;28;20071;-67
2022/03/12 10:39:44;;;;;;;8.68;4.82;;;13.90;43.80;;;;;;5050817;28;20052;-68
2022/03/12 10:42:53;;;;;;;8.85;4.50;;;14.20;43.70;;;;;;5050702;28;20059;-68
2022/03/12 10:46:01;;;;;;;9.27;4.63;;;14.50;43.60;;;;;;5051131;28;20051;-69
2022/03/12 10:49:08;;;;;;;9.40;5.30;;;14.70;43.90;;;;;;5050898;28;20052;-67
2022/03/12 10:52:12;;;;;;;9.10;4.80;;;14.90;43.00;;;;;;5051127;28;20068;-68
2022/03/12 10:55:30;;;;;;;7.88;4.60;;;14.50;42.50;;;;;;5051011;28;20408;-68
2022/03/12 10:58:36;;;;;;;9.82;5.97;;;14.30;43.50;;;;;;5050977;28;20040;-68
2022/03/12 11:01:50;;;;;;;8.13;5.13;;;14.40;44.80;;;;;;5050856;28;20044;-69
2022/03/12 11:05:02;;;;;;;10.32;5.22;;;14.40;44.10;;;;;;5050746;28;20044;-68
2022/03/12 11:08:27;;;;;;;8.98;5.50;;;14.30;43.60;;;;;;5049794;28;20399;-67
2022/03/12 11:11:31;;;;;;;7.55;5.03;;;14.30;44.10;;;;;;5038199;28;20047;-68
2022/03/12 11:14:35;;;;;;;14.05;5.38;;;14.20;44.60;;;;;;5050723;28;20056;-68
2022/03/12 11:17:43;;;;;;;11.48;5.82;;;14.20;44.30;;;;;;5050444;28;20048;-67
2022/03/12 11:20:50;;;;;;;9.75;5.32;;;14.00;44.20;;;;;;5050486;28;20044;-68
2022/03/12 11:23:55;;;;;;;9.73;5.88;;;13.80;44.50;;;;;;5050357;28;20056;-68
2022/03/12 11:27:01;;;;;;;14.18;6.38;;;13.60;44.80;;;;;;5050694;28;20048;-67
2022/03/12 11:30:08;;;;;;;11.10;6.25;;;13.70;45.20;;;;;;5050372;28;20511;-67
2022/03/12 11:33:14;;;;;;;10.02;5.78;;;13.90;45.00;;;;;;5049678;28;20044;-67
2022/03/12 11:36:24;;;;;;;12.95;5.88;;;14.10;45.80;;;;;;5050264;28;20060;-67
2022/03/12 11:39:28;;;;;;;12.55;6.57;;;14.30;44.80;;;;;;5050378;28;20044;-68
2022/03/12 11:42:35;;;;;;;12.10;6.90;;;14.30;44.80;;;;;;5048486;28;20047;-68
2022/03/12 11:45:39;;;;;;;13.05;7.07;;;14.30;44.80;;;;;;5050537;28;20051;-67
2022/03/12 11:48:43;;;;;;;14.32;6.32;;;14.00;45.10;;;;;;5050487;28;20056;-68
2022/03/12 11:51:47;;;;;;;9.27;6.00;;;14.00;45.50;;;;;;5049970;28;20040;-68
2022/03/12 11:54:54;;;;;;;8.63;5.20;;;13.70;46.20;;;;;;5050445;28;20044;-68
2022/03/12 11:58:02;;;;;;;10.90;5.00;;;13.60;45.60;;;;;;5049002;28;20060;-67
2022/03/12 12:01:06;;;;;;;10.77;5.60;;;13.60;45.60;;;;;;5049230;28;20051;-68
2022/03/12 12:04:10;;;;;;;10.98;6.15;;;13.80;45.50;;;;;;5050111;28;20056;-68
2022/03/12 12:07:14;;;;;;;7.90;4.95;;;13.70;45.40;;;;;;5050682;28;20510;-67
2022/03/12 12:10:24;;;;;;;9.15;5.45;;;13.80;45.10;;;;;;5049973;28;20044;-67
2022/03/12 12:13:31;;;;;;;7.93;4.90;;;13.90;45.00;;;;;;5050559;28;20207;-66
2022/03/12 12:16:35;;;;;;;8.75;4.60;;;13.70;44.40;;;;;;5050198;28;20413;-67
2022/03/12 12:19:39;;;;;;;7.05;4.93;;;13.90;45.10;;;;;;5054822;28;20044;-68
2022/03/12 12:22:44;;;;;;;6.80;4.45;;;13.90;44.80;;;;;;5052860;28;20051;-68
2022/03/12 12:25:48;;;;;;;7.03;4.93;;;13.80;44.10;;;;;;5053516;28;20507;-68
2022/03/12 12:28:53;;;;;;;7.43;4.70;;;13.70;45.00;;;;;;5053462;28;20043;-68
2022/03/12 12:32:04;;;;;;;6.32;3.97;;;13.70;45.80;;;;;;5053609;28;20531;-68
2022/03/12 12:35:22;;;;;;;7.85;4.28;;;13.80;45.80;;;;;;5041317;28;20408;-68
2022/03/12 12:38:26;;;;;;;9.48;5.00;;;13.80;46.40;;;;;;5053479;28;20048;-70
2022/03/12 12:41:53;;;;;;;14.77;4.68;;;13.70;46.00;;;;;;5052108;28;20044;-70
2022/03/12 12:44:58;;;;;;;8.02;4.32;;;13.90;47.20;;;;;;5051291;28;20036;-69
2022/03/12 12:48:07;;;;;;;9.20;4.65;;;14.00;46.00;;;;;;5052894;28;20047;-68
2022/03/12 12:51:20;;;;;;;7.50;4.63;;;14.10;46.90;;;;;;5051950;28;20040;-68
2022/03/12 12:54:43;;;;;;;10.77;4.50;;;14.10;46.20;;;;;;5053230;28;20044;-68
2022/03/12 12:57:48;;;;;;;8.90;4.70;;;14.10;46.10;;;;;;5052818;28;20427;-68
2022/03/12 13:01:01;;;;;;;7.57;4.28;;;14.00;46.50;;;;;;5053018;28;20048;-68
2022/03/12 13:04:09;;;;;;;9.90;6.28;;;14.00;45.80;;;;;;5052090;28;20503;-67
2022/03/12 13:07:23;;;;;;;10.55;6.28;;;13.80;46.50;;;;;;5051996;28;20048;-66
2022/03/12 13:10:29;;;;;;;15.75;7.97;;;13.50;47.50;;;;;;5052970;28;20052;-66
2022/03/12 13:13:33;;;;;;;10.32;5.18;;;13.50;47.10;;;;;;5052904;28;20048;-67
2022/03/12 13:16:53;;;;;;;8.07;4.50;;;13.50;47.60;;;;;;5052354;28;20055;-66
2022/03/12 13:19:58;;;;;;;6.15;4.53;;;13.60;47.20;;;;;;5053016;28;20044;-66
2022/03/12 13:23:02;;;;;;;8.05;4.47;;;13.70;47.50;;;;;;5052397;28;20044;-67
2022/03/12 13:26:16;;;;;;;10.57;4.10;;;13.70;47.20;;;;;;5052611;28;20048;-67
2022/03/12 13:29:21;;;;;;;7.85;5.00;;;13.70;47.10;;;;;;5051299;28;20096;-67
2022/03/12 13:32:26;;;;;;;7.13;4.30;;;13.70;46.80;;;;;;5052228;28;20035;-66
2022/03/12 13:35:30;;;;;;;9.93;5.18;;;13.70;47.30;;;;;;5052204;28;20044;-68
2022/03/12 13:38:34;;;;;;;9.25;4.88;;;13.70;47.50;;;;;;5051343;28;20052;-67
2022/03/12 13:41:41;;;;;;;11.30;4.30;;;13.70;47.90;;;;;;5051839;28;20048;-68
2022/03/12 13:44:46;;;;;;;6.30;4.45;;;13.70;46.90;;;;;;5052247;28;20052;-67
2022/03/12 13:47:56;;;;;;;7.60;4.45;;;13.60;46.90;;;;;;5052244;28;20051;-67
2022/03/12 13:51:00;;;;;;;9.80;4.55;;;13.60;47.50;;;;;;5051407;28;20044;-68
2022/03/12 13:54:06;;;;;;;8.10;4.93;;;13.60;47.30;;;;;;5050916;28;20060;-67
2022/03/12 13:57:10;;;;;;;12.75;4.90;;;13.50;47.50;;;;;;5051185;28;20060;-66
2022/03/12 14:00:19;;;;;;;8.07;4.53;;;13.60;47.80;;;;;;5051360;28;20052;-66
2022/03/12 14:03:23;;;;;;;7.53;4.40;;;13.40;47.30;;;;;;5051775;28;20043;-68
2022/03/12 14:06:36;;;;;;;11.50;4.38;;;13.30;47.20;;;;;;5050722;28;20036;-68
2022/03/12 14:09:42;;;;;;;9.13;4.18;;;13.30;47.10;;;;;;5052002;28;20051;-68
2022/03/12 14:12:55;;;;;;;15.90;4.43;;;13.20;46.90;;;;;;5051599;28;20044;-68
2022/03/12 14:15:59;;;;;;;7.75;4.50;;;13.20;47.40;;;;;;5050469;28;20055;-68
2022/03/12 14:19:05;;;;;;;10.68;5.28;;;13.20;47.80;;;;;;5050637;28;20067;-68
2022/03/12 14:22:09;;;;;;;7.15;4.82;;;13.20;47.90;;;;;;5051355;28;20048;-67
2022/03/12 14:25:13;;;;;;;10.00;4.68;;;13.30;48.00;;;;;;5051724;28;20052;-66
2022/03/12 14:28:21;;;;;;;8.77;4.53;;;13.40;47.70;;;;;;5051462;28;20045;-67
2022/03/12 14:31:26;;;;;;;9.30;5.00;;;13.40;47.10;;;;;;5051241;28;20044;-67
2022/03/12 14:34:32;;;;;;;8.63;4.75;;;13.40;47.30;;;;;;5050899;28;20067;-67
2022/03/12 14:37:37;;;;;;;11.05;4.30;;;13.30;46.90;;;;;;5050809;28;20056;-67
2022/03/12 14:40:41;;;;;;;12.25;5.72;;;13.20;47.00;;;;;;5050774;28;20036;-67
2022/03/12 14:43:45;;;;;;;10.48;5.32;;;13.30;47.40;;;;;;5050986;28;20526;-67
2022/03/12 14:46:51;;;;;;;6.40;4.55;;;13.40;47.30;;;;;;5050972;28;20048;-68
2022/03/12 14:49:56;;;;;;;29.60;15.43;;;13.30;46.90;;;;;;5050872;28;20047;-68
2022/03/12 14:53:00;;;;;;;10.32;6.53;;;13.30;47.50;;;;;;5050418;28;20044;-67
2022/03/12 14:56:04;;;;;;;19.13;11.02;;;13.20;47.20;;;;;;5050140;28;20067;-68
2022/03/12 14:59:10;;;;;;;16.35;9.85;;;13.30;48.20;;;;;;5051303;28;20318;-68
2022/03/12 15:02:16;;;;;;;20.52;15.43;;;13.30;47.40;;;;;;5049981;28;20222;-68
2022/03/12 15:05:23;;;;;;;16.52;10.48;;;13.20;47.50;;;;;;5050238;28;20040;-68
2022/03/12 15:08:29;;;;;;;17.02;9.35;;;13.10;47.60;;;;;;5050749;28;20068;-67
2022/03/12 15:11:34;;;;;;;49.55;27.13;;;13.00;47.90;;;;;;5050169;28;20051;-68
2022/03/12 15:14:40;;;;;;;71.38;36.55;;;12.90;48.10;;;;;;5050489;28;20056;-69
2022/03/12 15:18:07;;;;;;;23.77;11.15;;;13.00;48.40;;;;;;5050464;28;20056;-68
2022/03/12 15:21:16;;;;;;;11.95;6.53;;;13.10;48.00;;;;;;5050144;28;20040;-68
2022/03/12 15:24:31;;;;;;;8.88;5.40;;;13.00;48.10;;;;;;5050396;28;20044;-67
2022/03/12 15:27:35;;;;;;;17.50;7.20;;;12.90;48.40;;;;;;5050489;28;20052;-68
2022/03/12 15:30:41;;;;;;;10.98;6.57;;;12.90;48.80;;;;;;5050537;28;20044;-68
2022/03/12 15:33:52;;;;;;;12.75;8.63;;;12.90;48.50;;;;;;5050143;28;20107;-68
2022/03/12 15:36:58;;;;;;;12.65;6.20;;;12.90;48.80;;;;;;5049430;28;20127;-68
2022/03/12 15:40:09;;;;;;;8.88;5.18;;;12.90;49.50;;;;;;5050148;28;20048;-68
2022/03/12 15:43:13;;;;;;;9.75;5.60;;;12.80;49.80;;;;;;5050323;28;20047;-67
2022/03/12 15:46:19;;;;;;;12.50;5.65;;;12.60;49.80;;;;;;5050484;28;20501;-67
2022/03/12 15:49:23;;;;;;;10.40;6.38;;;12.50;50.30;;;;;;5049434;28;20060;-68
2022/03/12 15:52:27;;;;;;;12.38;6.25;;;12.50;50.60;;;;;;5049929;28;20238;-68
2022/03/12 15:55:31;;;;;;;15.82;6.82;;;12.40;50.30;;;;;;5053946;28;20223;-68
2022/03/12 15:58:38;;;;;;;13.25;6.00;;;12.30;50.40;;;;;;5053900;28;20511;-68
2022/03/12 16:01:42;;;;;;;12.60;6.43;;;12.30;50.20;;;;;;5053996;28;20048;-68
2022/03/12 16:04:46;;;;;;;12.63;5.75;;;12.20;50.30;;;;;;5054076;28;20056;-67
2022/03/12 16:07:50;;;;;;;9.13;5.90;;;12.20;50.30;;;;;;5053177;28;20044;-68